createdAt,value
2023-05-07T00:01:00.743Z,100727.56
2023-05-07T00:03:27.992Z,100737.72
2023-05-07T00:05:54.596Z,100735.97
2023-05-07T00:08:21.564Z,100740.34
2023-05-07T00:10:48.124Z,100746.84
2023-05-07T00:13:14.731Z,100744.13
2023-05-07T00:15:41.422Z,100748.75
2023-05-07T00:18:08.056Z,100749.56
2023-05-07T00:20:36.218Z,100743.19
2023-05-07T00:23:03.078Z,100740.47
2023-05-07T00:25:29.738Z,100755.38
2023-05-07T00:27:56.312Z,100747.19
2023-05-07T00:30:22.839Z,100747.59
2023-05-07T00:32:50.023Z,100744.56
2023-05-07T00:35:16.784Z,100748.81
2023-05-07T00:37:43.354Z,100740.16
2023-05-07T00:40:10.685Z,100738.19
2023-05-07T00:42:37.756Z,100745.59
2023-05-07T00:45:04.663Z,100732.06
2023-05-07T00:47:32.120Z,100730.94
2023-05-07T00:49:59.443Z,100722.03
2023-05-07T00:52:27.081Z,100731.38
2023-05-07T00:54:54.545Z,100729.50
2023-05-07T00:57:22.429Z,100726.88
2023-05-07T00:59:49.556Z,100722.50
2023-05-07T01:02:16.315Z,100717.03
2023-05-07T01:04:42.870Z,100709.84
2023-05-07T01:07:10.637Z,100713.66
2023-05-07T01:09:37.816Z,100723.06
2023-05-07T01:12:05.232Z,100724.31
2023-05-07T01:14:33.989Z,100717.41
2023-05-07T01:17:00.930Z,100727.81
2023-05-07T01:19:31.147Z,100721.06
2023-05-07T01:22:04.558Z,100729.44
2023-05-07T01:24:37.243Z,100730.97
2023-05-07T01:27:05.576Z,100712.59
2023-05-07T01:29:33.949Z,100722.28
2023-05-07T01:32:01.801Z,100724.59
2023-05-07T01:34:31.420Z,100719.41
2023-05-07T01:37:00.332Z,100725.59
2023-05-07T01:39:29.084Z,100723.34
2023-05-07T01:42:00.607Z,100729.81
2023-05-07T01:44:28.367Z,100723.09
2023-05-07T01:46:55.939Z,100722.06
2023-05-07T01:49:22.598Z,100723.53
2023-05-07T01:51:49.372Z,100719.00
2023-05-07T01:54:16.363Z,100725.38
2023-05-07T01:56:42.987Z,100719.75
2023-05-07T01:59:09.987Z,100717.00
2023-05-07T02:01:36.621Z,100715.50
2023-05-07T02:04:03.500Z,100716.50
2023-05-07T02:06:31.683Z,100717.91
2023-05-07T02:09:03.394Z,100723.78
2023-05-07T02:11:29.912Z,100723.16
2023-05-07T02:13:56.751Z,100705.34
2023-05-07T02:16:24.141Z,100708.34
2023-05-07T02:18:51.755Z,100710.19
2023-05-07T02:21:18.371Z,100710.72
2023-05-07T02:23:45.136Z,100715.09
2023-05-07T02:26:12.106Z,100722.22
2023-05-07T02:28:38.703Z,100724.63
2023-05-07T02:31:06.889Z,100715.63
2023-05-07T02:33:35.750Z,100707.88
2023-05-07T02:36:10.878Z,100707.13
2023-05-07T02:38:44.274Z,100711.75
2023-05-07T02:41:10.822Z,100710.78
2023-05-07T02:43:37.465Z,100712.59
2023-05-07T02:46:08.654Z,100715.28
2023-05-07T02:48:39.117Z,100718.97
2023-05-07T02:51:06.409Z,100720.09
2023-05-07T02:53:34.313Z,100718.78
2023-05-07T02:56:02.170Z,100713.63
2023-05-07T02:58:28.759Z,100715.50
2023-05-07T03:00:58.352Z,100711.75
2023-05-07T03:03:38.874Z,100704.91
2023-05-07T03:06:05.680Z,100707.31
2023-05-07T03:08:32.439Z,100709.13
2023-05-07T03:10:59.130Z,100711.00
2023-05-07T03:13:26.162Z,100711.19
2023-05-07T03:15:53.120Z,100722.44
2023-05-07T03:18:19.796Z,100723.56
2023-05-07T03:20:47.169Z,100710.28
2023-05-07T03:23:13.772Z,100718.66
2023-05-07T03:25:40.442Z,100723.22
2023-05-07T03:28:07.280Z,100716.84
2023-05-07T03:30:48.983Z,100713.69
2023-05-07T03:33:15.544Z,100711.16
2023-05-07T03:35:42.376Z,100711.84
2023-05-07T03:38:10.001Z,100708.38
2023-05-07T03:40:38.170Z,100714.75
2023-05-07T03:43:05.556Z,100707.31
2023-05-07T03:45:35.287Z,100713.09
2023-05-07T03:48:12.835Z,100719.00
2023-05-07T03:50:39.510Z,100714.56
2023-05-07T03:53:07.100Z,100711.53
2023-05-07T03:55:38.055Z,100713.53
2023-05-07T03:58:05.121Z,100716.25
2023-05-07T04:00:34.507Z,100715.28
2023-05-07T04:03:01.191Z,100729.78
2023-05-07T04:05:31.434Z,100724.66
2023-05-07T04:08:03.038Z,100726.81
2023-05-07T04:10:36.697Z,100730.41
2023-05-07T04:13:07.750Z,100728.53
2023-05-07T04:15:36.518Z,100723.25
2023-05-07T04:18:05.190Z,100732.59
2023-05-07T04:20:35.557Z,100723.38
2023-05-07T04:23:03.434Z,100723.56
2023-05-07T04:25:30.532Z,100717.81
2023-05-07T04:28:05.184Z,100723.09
2023-05-07T04:30:32.653Z,100726.31
2023-05-07T04:32:59.336Z,100714.38
2023-05-07T04:35:28.805Z,100713.41
2023-05-07T04:37:55.887Z,100718.94
2023-05-07T04:40:22.458Z,100716.97
2023-05-07T04:42:49.247Z,100724.19
2023-05-07T04:45:16.070Z,100721.38
2023-05-07T04:47:45.349Z,100733.44
2023-05-07T04:50:13.042Z,100730.09
2023-05-07T04:52:41.066Z,100730.59
2023-05-07T04:55:08.460Z,100732.69
2023-05-07T04:57:40.410Z,100732.81
2023-05-07T05:00:09.609Z,100729.03
2023-05-07T05:02:38.107Z,100738.28
2023-05-07T05:05:06.073Z,100741.41
2023-05-07T05:07:32.686Z,100740.78
2023-05-07T05:09:59.891Z,100741.88
2023-05-07T05:12:26.570Z,100749.31
2023-05-07T05:14:53.380Z,100742.53
2023-05-07T05:17:19.983Z,100742.38
2023-05-07T05:19:46.630Z,100743.75
2023-05-07T05:22:13.466Z,100754.25
2023-05-07T05:24:39.968Z,100754.53
2023-05-07T05:27:06.720Z,100746.84
2023-05-07T05:29:33.297Z,100754.91
2023-05-07T05:32:00.263Z,100759.81
2023-05-07T05:34:28.623Z,100760.56
2023-05-07T05:36:56.220Z,100755.81
2023-05-07T05:39:24.149Z,100760.59
2023-05-07T05:41:51.063Z,100765.53
2023-05-07T05:44:17.811Z,100761.94
2023-05-07T05:46:44.633Z,100766.69
2023-05-07T05:49:11.204Z,100758.53
2023-05-07T05:51:38.569Z,100754.81
2023-05-07T05:54:05.634Z,100758.81
2023-05-07T05:56:33.078Z,100754.22
2023-05-07T05:58:59.789Z,100761.88
2023-05-07T06:01:26.611Z,100755.25
2023-05-07T06:03:55.129Z,100773.00
2023-05-07T06:06:22.304Z,100763.00
2023-05-07T06:08:48.906Z,100770.78
2023-05-07T06:11:21.082Z,100766.97
2023-05-07T06:13:47.634Z,100776.94
2023-05-07T06:16:15.187Z,100774.97
2023-05-07T06:18:41.802Z,100774.31
2023-05-07T06:21:08.860Z,100786.69
2023-05-07T06:23:36.130Z,100775.06
2023-05-07T06:26:03.078Z,100787.06
2023-05-07T06:28:37.956Z,100787.50
2023-05-07T06:31:30.991Z,100776.34
2023-05-07T06:34:07.126Z,100787.94
2023-05-07T06:36:37.299Z,100797.69
2023-05-07T06:39:15.710Z,100790.69
2023-05-07T06:41:42.202Z,100802.16
2023-05-07T06:44:17.174Z,100797.22
2023-05-07T06:46:47.960Z,100798.66
2023-05-07T06:49:15.512Z,100792.06
2023-05-07T06:51:42.467Z,100798.56
2023-05-07T06:54:09.103Z,100805.59
2023-05-07T06:56:38.319Z,100803.06
2023-05-07T06:59:05.981Z,100792.34
2023-05-07T07:01:36.908Z,100789.53
2023-05-07T07:04:04.880Z,100791.81
2023-05-07T07:06:32.749Z,100790.78
2023-05-07T07:09:01.502Z,100796.00
2023-05-07T07:11:28.860Z,100796.75
2023-05-07T07:13:55.654Z,100794.47
2023-05-07T07:16:23.259Z,100798.34
2023-05-07T07:18:52.085Z,100802.63
2023-05-07T07:21:20.190Z,100799.06
2023-05-07T07:23:47.126Z,100793.84
2023-05-07T07:26:13.832Z,100786.69
2023-05-07T07:28:45.634Z,100799.72
2023-05-07T07:31:14.498Z,100804.84
2023-05-07T07:33:41.555Z,100806.88
2023-05-07T07:36:08.851Z,100806.25
2023-05-07T07:38:36.346Z,100805.44
2023-05-07T07:41:03.979Z,100794.50
2023-05-07T07:43:30.896Z,100796.94
2023-05-07T07:45:57.715Z,100799.13
2023-05-07T07:48:24.983Z,100800.69
2023-05-07T07:50:54.560Z,100806.22
2023-05-07T07:53:21.480Z,100809.69
2023-05-07T07:55:48.336Z,100812.53
2023-05-07T07:58:18.038Z,100814.13
2023-05-07T08:00:44.711Z,100817.25
2023-05-07T08:03:13.249Z,100811.31
2023-05-07T08:05:44.346Z,100825.13
2023-05-07T08:08:11.162Z,100818.22
2023-05-07T08:10:40.147Z,100813.91
2023-05-07T08:13:13.889Z,100816.16
2023-05-07T08:15:42.038Z,100816.88
2023-05-07T08:18:08.809Z,100821.66
2023-05-07T08:20:40.249Z,100821.34
2023-05-07T08:23:09.665Z,100824.78
2023-05-07T08:25:38.443Z,100822.09
2023-05-07T08:28:06.042Z,100828.66
2023-05-07T08:30:33.820Z,100828.34
2023-05-07T08:33:01.497Z,100825.75
2023-05-07T08:35:28.962Z,100824.38
2023-05-07T08:37:55.641Z,100826.44
2023-05-07T08:40:27.648Z,100822.56
2023-05-07T08:42:57.902Z,100830.38
2023-05-07T08:45:25.275Z,100828.78
2023-05-07T08:47:59.143Z,100830.59
2023-05-07T08:50:29.412Z,100835.59
2023-05-07T08:52:57.446Z,100822.22
2023-05-07T08:55:25.262Z,100832.03
2023-05-07T08:57:53.581Z,100827.84
2023-05-07T09:00:20.435Z,100830.25
2023-05-07T09:02:50.530Z,100836.91
2023-05-07T09:05:17.400Z,100828.38
2023-05-07T09:07:44.177Z,100835.00
2023-05-07T09:10:13.980Z,100834.44
2023-05-07T09:12:42.312Z,100833.28
2023-05-07T09:15:11.145Z,100831.66
2023-05-07T09:17:38.603Z,100834.53
2023-05-07T09:20:09.327Z,100821.47
2023-05-07T09:22:38.066Z,100838.88
2023-05-07T09:25:09.397Z,100837.13
2023-05-07T09:27:38.299Z,100838.06
2023-05-07T09:30:08.200Z,100837.22
2023-05-07T09:32:38.843Z,100828.00
2023-05-07T09:35:07.130Z,100835.19
2023-05-07T09:37:34.584Z,100843.53
2023-05-07T09:40:01.590Z,100848.22
2023-05-07T09:42:30.654Z,100850.09
2023-05-07T09:45:01.027Z,100853.72
2023-05-07T09:47:34.219Z,100847.00
2023-05-07T09:50:06.469Z,100853.59
2023-05-07T09:52:36.155Z,100840.13
2023-05-07T09:55:06.962Z,100843.41
2023-05-07T09:57:35.691Z,100845.09
2023-05-07T10:00:07.212Z,100839.97
2023-05-07T10:02:50.585Z,100839.13
2023-05-07T10:05:23.453Z,100840.81
2023-05-07T10:07:51.950Z,100837.94
2023-05-07T10:10:19.550Z,100844.47
2023-05-07T10:12:48.337Z,100841.31
2023-05-07T10:15:22.385Z,100834.63
2023-05-07T10:17:54.610Z,100836.09
2023-05-07T10:20:22.528Z,100839.28
2023-05-07T10:22:51.689Z,100834.75
2023-05-07T10:25:29.184Z,100831.06
2023-05-07T10:28:00.627Z,100832.75
2023-05-07T10:31:07.086Z,100825.22
2023-05-07T10:33:40.591Z,100829.56
2023-05-07T10:36:08.967Z,100825.88
2023-05-07T10:38:36.102Z,100832.88
2023-05-07T10:41:05.551Z,100830.00
2023-05-07T10:43:42.839Z,100829.41
2023-05-07T10:46:13.139Z,100837.03
2023-05-07T10:49:01.378Z,100834.31
2023-05-07T10:51:33.410Z,100841.03
2023-05-07T10:54:10.978Z,100833.34
2023-05-07T10:56:44.082Z,100826.78
2023-05-07T10:59:21.913Z,100829.34
2023-05-07T11:01:56.045Z,100829.13
2023-05-07T11:04:32.491Z,100828.97
2023-05-07T11:07:26.342Z,100820.31
2023-05-07T11:10:05.300Z,100823.47
2023-05-07T11:12:51.829Z,100824.84
2023-05-07T11:15:38.602Z,100825.63
2023-05-07T11:18:12.913Z,100825.34
2023-05-07T11:20:58.350Z,100824.09
2023-05-07T11:23:41.405Z,100815.47
2023-05-07T11:26:16.550Z,100810.78
2023-05-07T11:28:44.637Z,100820.19
2023-05-07T11:31:12.574Z,100816.78
2023-05-07T11:33:40.909Z,100812.84
2023-05-07T11:36:12.258Z,100822.09
2023-05-07T11:38:44.904Z,100820.13
2023-05-07T11:41:11.493Z,100813.81
2023-05-07T11:43:38.175Z,100823.19
2023-05-07T11:46:12.608Z,100826.47
2023-05-07T11:48:39.992Z,100816.28
2023-05-07T11:51:09.867Z,100817.78
2023-05-07T11:53:38.725Z,100817.56
2023-05-07T11:56:09.240Z,100820.63
2023-05-07T11:58:36.173Z,100817.63
2023-05-07T12:01:02.715Z,100825.34
2023-05-07T12:03:31.710Z,100817.00
2023-05-07T12:06:00.575Z,100826.00
2023-05-07T12:08:27.212Z,100823.09
2023-05-07T12:10:55.001Z,100827.44
2023-05-07T12:13:26.980Z,100828.16
2023-05-07T12:15:55.190Z,100828.13
2023-05-07T12:18:22.779Z,100831.63
2023-05-07T12:20:50.124Z,100830.94
2023-05-07T12:23:18.697Z,100834.03
2023-05-07T12:25:48.489Z,100837.78
2023-05-07T12:28:19.364Z,100820.97
2023-05-07T12:30:51.298Z,100832.72
2023-05-07T12:33:19.364Z,100829.31
2023-05-07T12:35:45.923Z,100823.59
2023-05-07T12:38:14.041Z,100828.34
2023-05-07T12:40:43.389Z,100825.09
2023-05-07T12:43:18.537Z,100828.59
2023-05-07T12:45:47.370Z,100831.16
2023-05-07T12:48:14.104Z,100838.34
2023-05-07T12:50:41.025Z,100832.09
2023-05-07T12:53:09.000Z,100836.94
2023-05-07T12:55:47.529Z,100830.84
2023-05-07T12:58:22.172Z,100835.31
2023-05-07T13:00:50.815Z,100845.47
2023-05-07T13:03:26.820Z,100844.59
2023-05-07T13:05:58.837Z,100844.53
2023-05-07T13:08:32.758Z,100842.59
2023-05-07T13:11:01.331Z,100845.88
2023-05-07T13:13:30.189Z,100852.44
2023-05-07T13:15:58.514Z,100857.44
2023-05-07T13:18:27.018Z,100849.31
2023-05-07T13:20:56.660Z,100848.28
2023-05-07T13:23:23.909Z,100851.59
2023-05-07T13:25:51.356Z,100850.06
2023-05-07T13:28:18.073Z,100850.19
2023-05-07T13:30:45.121Z,100855.19
2023-05-07T13:33:11.883Z,100853.88
2023-05-07T13:35:38.634Z,100847.25
2023-05-07T13:38:05.784Z,100851.28
2023-05-07T13:40:32.513Z,100843.56
2023-05-07T13:43:02.697Z,100856.13
2023-05-07T13:45:33.173Z,100847.56
2023-05-07T13:47:59.950Z,100853.28
2023-05-07T13:50:28.021Z,100862.41
2023-05-07T13:52:54.645Z,100857.22
2023-05-07T13:55:23.368Z,100856.63
2023-05-07T13:57:57.810Z,100852.13
2023-05-07T14:00:25.326Z,100863.81
2023-05-07T14:02:51.981Z,100865.03
2023-05-07T14:05:18.996Z,100864.81
2023-05-07T14:07:46.634Z,100864.91
2023-05-07T14:10:14.233Z,100875.38
2023-05-07T14:12:41.536Z,100860.47
2023-05-07T14:15:08.716Z,100863.47
2023-05-07T14:17:35.620Z,100864.81
2023-05-07T14:20:02.234Z,100868.69
2023-05-07T14:22:28.811Z,100865.19
2023-05-07T14:25:05.886Z,100863.50
2023-05-07T14:27:33.326Z,100876.31
2023-05-07T14:29:59.826Z,100875.44
2023-05-07T14:32:26.409Z,100876.94
2023-05-07T14:34:52.976Z,100881.81
2023-05-07T14:37:20.761Z,100870.56
2023-05-07T14:39:49.861Z,100876.28
2023-05-07T14:42:17.263Z,100878.97
2023-05-07T14:44:45.585Z,100878.97
2023-05-07T14:47:12.102Z,100887.63
2023-05-07T14:49:38.920Z,100884.66
2023-05-07T14:52:07.010Z,100874.94
2023-05-07T14:54:38.912Z,100879.97
2023-05-07T14:57:06.747Z,100885.81
2023-05-07T14:59:33.444Z,100879.63
2023-05-07T15:02:00.319Z,100880.97
2023-05-07T15:04:26.993Z,100878.97
2023-05-07T15:06:55.066Z,100882.38
2023-05-07T15:09:21.624Z,100884.66
2023-05-07T15:11:48.136Z,100878.19
2023-05-07T15:14:14.700Z,100882.84
2023-05-07T15:16:41.316Z,100879.00
2023-05-07T15:19:07.967Z,100885.34
2023-05-07T15:21:35.765Z,100885.53
2023-05-07T15:24:02.987Z,100885.34
2023-05-07T15:26:30.144Z,100887.41
2023-05-07T15:28:59.740Z,100891.00
2023-05-07T15:31:26.678Z,100890.25
2023-05-07T15:33:53.372Z,100882.72
2023-05-07T15:36:21.188Z,100876.09
2023-05-07T15:38:47.774Z,100882.84
2023-05-07T15:41:14.358Z,100876.50
2023-05-07T15:43:46.913Z,100875.22
2023-05-07T15:46:17.918Z,100871.94
2023-05-07T15:48:44.541Z,100872.31
2023-05-07T15:51:11.381Z,100871.31
2023-05-07T15:53:38.585Z,100882.66
2023-05-07T15:56:05.446Z,100882.31
2023-05-07T15:58:32.094Z,100885.31
2023-05-07T16:00:58.914Z,100882.25
2023-05-07T16:03:27.537Z,100879.03
2023-05-07T16:05:54.446Z,100873.09
2023-05-07T16:08:21.175Z,100878.00
2023-05-07T16:10:47.735Z,100877.34
2023-05-07T16:13:14.494Z,100871.34
2023-05-07T16:15:41.152Z,100870.91
2023-05-07T16:18:07.822Z,100874.13
2023-05-07T16:20:34.980Z,100879.38
2023-05-07T16:23:02.056Z,100874.34
2023-05-07T16:25:28.666Z,100874.81
2023-05-07T16:27:55.880Z,100873.97
2023-05-07T16:30:22.425Z,100882.91
2023-05-07T16:32:49.070Z,100880.75
2023-05-07T16:35:15.746Z,100879.88
2023-05-07T16:37:42.444Z,100885.34
2023-05-07T16:40:09.600Z,100879.34
2023-05-07T16:42:36.918Z,100877.53
2023-05-07T16:45:06.790Z,100885.94
2023-05-07T16:47:33.466Z,100879.72
2023-05-07T16:50:00.650Z,100878.84
2023-05-07T16:52:28.937Z,100878.72
2023-05-07T16:54:58.247Z,100878.38
2023-05-07T16:57:25.564Z,100877.13
2023-05-07T16:59:52.572Z,100888.78
2023-05-07T17:02:19.711Z,100885.59
2023-05-07T17:04:46.213Z,100885.28
2023-05-07T17:07:12.861Z,100893.94
2023-05-07T17:09:39.409Z,100891.50
2023-05-07T17:12:05.986Z,100881.09
2023-05-07T17:14:32.489Z,100883.84
2023-05-07T17:16:59.104Z,100884.59
2023-05-07T17:19:25.714Z,100893.81
2023-05-07T17:21:52.275Z,100896.38
2023-05-07T17:24:18.816Z,100905.56
2023-05-07T17:26:47.769Z,100909.50
2023-05-07T17:29:14.297Z,100906.56
2023-05-07T17:31:41.104Z,100916.09
2023-05-07T17:34:07.704Z,100918.34
2023-05-07T17:36:34.242Z,100918.16
2023-05-07T17:39:00.937Z,100929.09
2023-05-07T17:41:27.532Z,100931.72
2023-05-07T17:43:54.060Z,100933.22
2023-05-07T17:46:20.950Z,100942.19
2023-05-07T17:48:47.725Z,100942.41
2023-05-07T17:51:14.258Z,100944.91
2023-05-07T17:53:40.827Z,100939.56
2023-05-07T17:56:07.373Z,100948.31
2023-05-07T17:58:38.454Z,100949.97
2023-05-07T18:01:14.443Z,100950.13
2023-05-07T18:03:41.406Z,100958.06
2023-05-07T18:06:10.087Z,100955.50
2023-05-07T18:08:36.830Z,100958.34
2023-05-07T18:11:05.691Z,100955.88
2023-05-07T18:13:32.205Z,100959.44
2023-05-07T18:15:58.788Z,100965.66
2023-05-07T18:18:28.116Z,100962.09
2023-05-07T18:20:54.983Z,100969.31
2023-05-07T18:23:21.473Z,100978.81
2023-05-07T18:25:48.046Z,100972.94
2023-05-07T18:28:14.619Z,100979.81
2023-05-07T18:30:41.301Z,100981.78
2023-05-07T18:33:08.177Z,100983.84
2023-05-07T18:35:34.984Z,100991.94
2023-05-07T18:38:01.472Z,100988.59
2023-05-07T18:40:28.069Z,101001.53
2023-05-07T18:42:55.373Z,100996.88
2023-05-07T18:45:21.970Z,100996.50
2023-05-07T18:47:48.559Z,100996.19
2023-05-07T18:50:16.362Z,101005.66
2023-05-07T18:52:42.867Z,100995.66
2023-05-07T18:55:11.610Z,100994.50
2023-05-07T18:57:38.131Z,101008.81
2023-05-07T19:00:06.622Z,101011.84
2023-05-07T19:02:33.234Z,101015.41
2023-05-07T19:04:59.797Z,101023.16
2023-05-07T19:07:26.300Z,101010.84
2023-05-07T19:10:19.115Z,101019.47
2023-05-07T19:12:39.432Z,101021.75
2023-05-07T19:15:06.577Z,101023.94
2023-05-07T19:17:33.189Z,101015.53
2023-05-07T19:19:59.738Z,101020.19
2023-05-07T19:22:26.374Z,101017.41
2023-05-07T19:24:53.607Z,101036.72
2023-05-07T19:27:20.202Z,101029.19
2023-05-07T19:29:47.040Z,101024.28
2023-05-07T19:32:13.617Z,101038.16
2023-05-07T19:34:40.234Z,101033.84
2023-05-07T19:37:06.801Z,101032.63
2023-05-07T19:39:33.362Z,101038.31
2023-05-07T19:41:59.945Z,101044.19
2023-05-07T19:44:26.499Z,101043.16
2023-05-07T19:46:53.081Z,101047.03
2023-05-07T19:49:19.700Z,101052.50
2023-05-07T19:51:46.295Z,101049.16
2023-05-07T19:54:12.951Z,101052.50
2023-05-07T19:56:41.598Z,101053.00
2023-05-07T19:59:08.439Z,101063.31
2023-05-07T20:01:36.089Z,101053.91
2023-05-07T20:04:02.650Z,101054.38
2023-05-07T20:06:29.235Z,101062.28
2023-05-07T20:08:55.777Z,101061.53
2023-05-07T20:11:23.206Z,101062.47
2023-05-07T20:13:49.872Z,101069.81
2023-05-07T20:16:16.594Z,101063.63
2023-05-07T20:18:43.232Z,101062.47
2023-05-07T20:21:09.844Z,101066.88
2023-05-07T20:23:36.395Z,101071.16
2023-05-07T20:26:02.925Z,101074.53
2023-05-07T20:28:29.800Z,101080.72
2023-05-07T20:30:56.388Z,101083.56
2023-05-07T20:33:22.937Z,101086.00
2023-05-07T20:35:49.753Z,101092.09
2023-05-07T20:38:16.341Z,101097.56
2023-05-07T20:40:42.889Z,101093.88
2023-05-07T20:43:09.455Z,101101.81
2023-05-07T20:45:36.099Z,101104.28
2023-05-07T20:48:03.036Z,101097.63
2023-05-07T20:50:29.890Z,101104.34
2023-05-07T20:52:56.483Z,101102.41
2023-05-07T20:55:23.038Z,101097.72
2023-05-07T20:57:49.582Z,101101.41
2023-05-07T21:00:17.333Z,101106.78
2023-05-07T21:02:45.249Z,101103.22
2023-05-07T21:05:11.916Z,101104.22
2023-05-07T21:07:38.505Z,101115.72
2023-05-07T21:10:06.111Z,101114.50
2023-05-07T21:12:32.722Z,101122.06
2023-05-07T21:14:59.318Z,101117.19
2023-05-07T21:17:25.953Z,101124.00
2023-05-07T21:19:52.899Z,101127.94
2023-05-07T21:22:19.402Z,101120.22
2023-05-07T21:24:45.963Z,101132.50
2023-05-07T21:27:12.518Z,101135.38
2023-05-07T21:29:39.457Z,101137.06
2023-05-07T21:32:06.239Z,101133.84
2023-05-07T21:34:32.826Z,101137.81
2023-05-07T21:36:59.378Z,101129.16
2023-05-07T21:39:26.029Z,101135.88
2023-05-07T21:41:52.672Z,101129.25
2023-05-07T21:44:19.306Z,101118.53
2023-05-07T21:46:45.922Z,101125.91
2023-05-07T21:49:12.737Z,101114.06
2023-05-07T21:51:39.313Z,101118.06
2023-05-07T21:54:06.858Z,101112.97
2023-05-07T21:56:33.386Z,101118.06
2023-05-07T21:58:59.953Z,101115.22
2023-05-07T22:01:26.532Z,101112.78
2023-05-07T22:03:53.303Z,101112.19
2023-05-07T22:06:22.060Z,101123.41
2023-05-07T22:08:49.791Z,101121.34
2023-05-07T22:11:16.689Z,101122.00
2023-05-07T22:13:43.380Z,101122.31
2023-05-07T22:16:09.979Z,101124.84
2023-05-07T22:18:36.620Z,101119.19
2023-05-07T22:21:03.336Z,101130.00
2023-05-07T22:23:29.860Z,101123.03
2023-05-07T22:25:56.384Z,101127.00
2023-05-07T22:28:22.944Z,101132.22
2023-05-07T22:30:51.120Z,101133.31
2023-05-07T22:33:17.732Z,101129.88
2023-05-07T22:35:44.293Z,101125.63
2023-05-07T22:38:10.842Z,101127.47
2023-05-07T22:40:37.419Z,101128.31
2023-05-07T22:43:04.126Z,101137.81
2023-05-07T22:45:30.780Z,101124.06
2023-05-07T22:47:57.329Z,101133.38
2023-05-07T22:50:24.008Z,101128.53
2023-05-07T22:52:50.718Z,101129.81
2023-05-07T22:55:17.415Z,101127.81
2023-05-07T22:57:44.046Z,101133.59
2023-05-07T23:00:11.800Z,101122.28
2023-05-07T23:02:38.713Z,101132.31
2023-05-07T23:05:05.553Z,101125.06
2023-05-07T23:07:32.153Z,101125.31
2023-05-07T23:09:58.912Z,101135.06
2023-05-07T23:12:25.532Z,101137.69
2023-05-07T23:14:52.088Z,101133.72
2023-05-07T23:17:18.613Z,101138.47
2023-05-07T23:19:45.156Z,101132.31
2023-05-07T23:22:12.231Z,101122.19
2023-05-07T23:24:39.140Z,101127.63
2023-05-07T23:27:06.085Z,101130.13
2023-05-07T23:29:32.925Z,101132.53
2023-05-07T23:32:00.231Z,101129.03
2023-05-07T23:34:26.990Z,101132.88
2023-05-07T23:36:54.245Z,101143.94
2023-05-07T23:39:20.904Z,101131.06
2023-05-07T23:41:47.535Z,101124.69
2023-05-07T23:44:16.304Z,101130.28
2023-05-07T23:46:44.414Z,101133.50
2023-05-07T23:49:11.104Z,101135.72
2023-05-07T23:51:37.844Z,101136.25
2023-05-07T23:54:04.876Z,101126.56
2023-05-07T23:56:31.458Z,101130.81
2023-05-07T23:58:58.182Z,101124.63
